Westwood Lakes, Florida
Current Conditions -  °F | °C
As of 3:53 AM on Friday 24 Oct 2014 (Local Time) from KTMB Reporting Station
Light Rain Light Rain  
Wind Chill: 78°   Ceiling: 3000
Heat Index: 80°   Visibility: 10mi
Dew Point: 71°   Wind: 8mph
Humidity: 79%   Direction: 60°ENE
Pressure: 29.83"   Gusts: NA
Location:  25.72°N, 80.37°W
Report Text: KTMB 240753Z AUTO 06007KT 10SM -RA BKN030 OVC037 26/22 A2983 RMK AO2 RAB38 SLP100 P0000 T02560217
Loading
Personal Weather Stations






























Interactive Weather Map
Tropical Storm Tracking
New forecast layout! Learn more

10-Day Weather Forecast

Advertisements
Track Severe Weather on mobile